Time;durP1;ratioP1;P1;durP2;ratioP2;P2;SDS_P1;SDS_P2;PMS_P1;PMS_P2;Temp;Humidity;BMP_temperature;BMP_pressure;BME280_temperature;BME280_humidity;BME280_pressure;Samples;Min_cycle;Max_cycle;Signal;HPM_P1;HPM_P2
2022/03/15 20:55:42;;;;;;;18.63;7.70;;;13.30;99.90;;;;;;1025944;28;20871;-70
2022/03/15 20:56:14;;;;;;;9.82;7.22;;;13.60;99.90;;;;;;1025521;28;20023;-69
2022/03/15 20:56:50;;;;;;;10.63;7.25;;;13.80;99.90;;;;;;1022511;28;20160;-72
2022/03/15 20:57:22;;;;;;;12.75;7.72;;;13.90;99.90;;;;;;1021594;29;20506;-70
2022/03/15 20:57:52;;;;;;;10.20;7.22;;;13.90;99.90;;;;;;1020793;29;20115;-70
2022/03/15 20:58:25;;;;;;;9.93;7.67;;;14.00;99.90;;;;;;1021320;29;20155;-70
2022/03/15 20:58:56;;;;;;;10.85;7.22;;;14.00;99.90;;;;;;1021920;29;20020;-70
2022/03/15 20:59:28;;;;;;;10.03;7.20;;;14.00;99.90;;;;;;1022511;28;20007;-70
2022/03/15 21:00:00;;;;;;;9.63;7.63;;;14.10;99.90;;;;;;1017826;29;20411;-70
2022/03/15 21:00:30;;;;;;;9.68;7.85;;;14.10;99.90;;;;;;1018146;29;20008;-71
2022/03/15 21:01:04;;;;;;;12.50;8.07;;;14.10;99.90;;;;;;1021913;29;20015;-71
2022/03/15 21:01:38;;;;;;;11.30;8.00;;;14.10;99.90;;;;;;1026287;28;20372;-71
2022/03/15 21:02:09;;;;;;;9.90;8.15;;;14.10;99.90;;;;;;1030084;28;20465;-70
2022/03/15 21:02:43;;;;;;;11.43;7.38;;;14.10;99.90;;;;;;1025557;28;20023;-70
2022/03/15 21:03:20;;;;;;;10.48;8.00;;;14.10;99.90;;;;;;1022263;28;20108;-70
2022/03/15 21:03:50;;;;;;;10.38;7.88;;;14.10;99.90;;;;;;1021713;29;20813;-70
2022/03/15 21:04:21;;;;;;;9.93;7.90;;;14.20;99.90;;;;;;1019944;29;20523;-70
2022/03/15 21:04:52;;;;;;;12.55;8.43;;;14.20;99.90;;;;;;1022067;29;20091;-69
2022/03/15 21:05:22;;;;;;;11.20;8.27;;;14.20;99.90;;;;;;1022100;29;20043;-70
2022/03/15 21:05:53;;;;;;;8.70;7.77;;;14.20;99.90;;;;;;1021590;29;20487;-69
2022/03/15 21:06:25;;;;;;;12.80;8.33;;;14.20;99.90;;;;;;1021821;29;20042;-69
2022/03/15 21:06:57;;;;;;;9.93;8.10;;;14.20;99.90;;;;;;1021991;29;20382;-70
2022/03/15 21:07:27;;;;;;;10.38;7.95;;;14.20;99.90;;;;;;1022029;29;20063;-70
2022/03/15 21:07:58;;;;;;;9.60;8.03;;;14.20;99.90;;;;;;1021122;29;20102;-69
2022/03/15 21:08:36;;;;;;;10.23;7.80;;;14.20;99.90;;;;;;1016754;28;20491;-69
2022/03/15 21:09:07;;;;;;;;;;;14.20;99.90;;;;;;1022360;29;20015;-69
2022/03/15 21:09:38;;;;;;;10.00;8.10;;;14.20;99.90;;;;;;1022527;29;19907;-69
2022/03/15 21:10:09;;;;;;;13.75;8.75;;;14.30;99.90;;;;;;1022174;28;20079;-68
2022/03/15 21:10:40;;;;;;;11.43;8.30;;;14.30;99.90;;;;;;1022006;29;20079;-68
2022/03/15 21:11:13;;;;;;;9.38;8.23;;;14.30;99.90;;;;;;1021998;28;20023;-68
2022/03/15 21:11:47;;;;;;;11.18;8.55;;;14.30;99.90;;;;;;1019316;28;20027;-68
2022/03/15 21:12:22;;;;;;;12.18;8.60;;;14.30;99.90;;;;;;1021846;29;20019;-69
2022/03/15 21:12:54;;;;;;;9.63;8.52;;;14.30;99.90;;;;;;1019157;29;20103;-69
2022/03/15 21:13:31;;;;;;;10.50;8.63;;;14.30;99.90;;;;;;1018163;29;20015;-69
2022/03/15 21:14:03;;;;;;;11.18;8.88;;;14.30;99.90;;;;;;1018091;29;20012;-69
2022/03/15 21:14:33;;;;;;;10.48;8.20;;;14.30;99.90;;;;;;1018139;29;20020;-69
2022/03/15 21:15:05;;;;;;;13.03;8.17;;;14.30;99.90;;;;;;1020720;29;20091;-69
2022/03/15 21:15:36;;;;;;;9.68;7.85;;;14.30;99.90;;;;;;1021991;29;20411;-70
2022/03/15 21:16:08;;;;;;;11.50;8.23;;;14.30;99.90;;;;;;1022306;28;20644;-69
2022/03/15 21:16:45;;;;;;;10.23;8.18;;;14.30;99.90;;;;;;1021310;28;20020;-69
2022/03/15 21:17:19;;;;;;;12.40;8.60;;;14.30;99.90;;;;;;1022057;29;20024;-69
2022/03/15 21:17:51;;;;;;;12.68;9.40;;;14.30;99.90;;;;;;1021646;29;20024;-70
2022/03/15 21:18:23;;;;;;;9.80;8.10;;;14.30;99.90;;;;;;1021725;29;20488;-69
2022/03/15 21:18:55;;;;;;;12.00;8.60;;;14.30;99.90;;;;;;1019350;29;20008;-69
2022/03/15 21:19:26;;;;;;;9.43;8.35;;;14.30;99.90;;;;;;1017921;29;20048;-71
2022/03/15 21:19:58;;;;;;;10.35;8.70;;;14.30;99.90;;;;;;1021610;29;20095;-69
2022/03/15 21:20:32;;;;;;;13.07;9.13;;;14.30;99.90;;;;;;1021725;28;20030;-68
2022/03/15 21:21:03;;;;;;;11.10;9.27;;;14.30;99.90;;;;;;1019583;29;20020;-68
2022/03/15 21:21:36;;;;;;;12.57;9.13;;;14.30;99.90;;;;;;1021552;29;20011;-68
2022/03/15 21:22:10;;;;;;;13.88;9.27;;;14.30;99.90;;;;;;1018613;29;20515;-68
2022/03/15 21:22:48;;;;;;;10.40;8.68;;;14.30;99.90;;;;;;1021881;29;20011;-69
2022/03/15 21:23:19;;;;;;;12.68;9.30;;;14.30;99.90;;;;;;1020576;29;20454;-68
2022/03/15 21:23:50;;;;;;;11.07;8.87;;;14.30;99.90;;;;;;1017723;29;20059;-68
2022/03/15 21:24:21;;;;;;;10.68;9.10;;;14.30;99.90;;;;;;1017752;29;20067;-69
2022/03/15 21:24:53;;;;;;;14.10;9.17;;;14.30;99.90;;;;;;1017831;29;20119;-69
2022/03/15 21:25:24;;;;;;;11.07;9.18;;;14.30;99.90;;;;;;1021898;29;20016;-69
2022/03/15 21:25:56;;;;;;;13.02;9.55;;;14.30;99.90;;;;;;1018787;29;20016;-70
2022/03/15 21:26:27;;;;;;;13.40;8.93;;;14.30;99.90;;;;;;1018290;29;20020;-69
2022/03/15 21:26:58;;;;;;;10.53;9.30;;;14.30;99.90;;;;;;1017932;29;20020;-69
2022/03/15 21:27:29;;;;;;;10.98;9.10;;;14.30;99.90;;;;;;1020588;28;20035;-70
2022/03/15 21:28:00;;;;;;;12.10;10.33;;;14.20;99.90;;;;;;1017823;29;20020;-69
2022/03/15 21:28:30;;;;;;;13.37;11.23;;;14.20;99.90;;;;;;1020267;29;20016;-69
2022/03/15 21:29:04;;;;;;;14.47;11.43;;;14.30;99.90;;;;;;1020657;28;20067;-67
2022/03/15 21:29:36;;;;;;;16.10;11.25;;;14.20;99.90;;;;;;1018908;28;20016;-69
2022/03/15 21:30:08;;;;;;;13.05;10.68;;;14.20;99.90;;;;;;1019970;28;20015;-68
2022/03/15 21:30:38;;;;;;;17.15;11.48;;;14.20;99.90;;;;;;1018013;29;20024;-69
2022/03/15 21:31:09;;;;;;;15.30;10.40;;;14.20;99.90;;;;;;1020185;29;20012;-68
2022/03/15 21:31:41;;;;;;;15.67;11.73;;;14.20;99.90;;;;;;1021930;28;20122;-69
2022/03/15 21:32:11;;;;;;;14.90;11.18;;;14.20;99.90;;;;;;1021078;28;20483;-69
2022/03/15 21:32:42;;;;;;;15.03;11.73;;;14.20;99.90;;;;;;1020985;29;20510;-70
2022/03/15 21:33:13;;;;;;;13.40;10.97;;;14.20;99.90;;;;;;1021132;28;20011;-69
2022/03/15 21:33:45;;;;;;;14.33;10.83;;;14.20;99.90;;;;;;1019973;29;20271;-72
2022/03/15 21:34:16;;;;;;;13.60;9.93;;;14.10;99.90;;;;;;1019553;28;20755;-71
2022/03/15 21:34:50;;;;;;;15.40;12.10;;;14.10;99.90;;;;;;1021631;29;20558;-69
2022/03/15 21:35:22;;;;;;;15.90;11.02;;;14.10;99.90;;;;;;1018243;29;20063;-70
2022/03/15 21:35:53;;;;;;;16.33;12.75;;;14.10;99.90;;;;;;1017535;29;20019;-69
2022/03/15 21:36:24;;;;;;;12.98;10.63;;;14.10;99.90;;;;;;1018249;29;20016;-69
2022/03/15 21:36:56;;;;;;;15.32;12.32;;;14.10;99.90;;;;;;1017844;29;20020;-68
2022/03/15 21:37:27;;;;;;;15.40;11.20;;;14.10;99.90;;;;;;1014101;29;20506;-69
2022/03/15 21:37:57;;;;;;;11.93;9.10;;;14.10;99.90;;;;;;1017826;29;20700;-68
2022/03/15 21:38:30;;;;;;;11.67;8.97;;;14.10;99.90;;;;;;1017764;29;20024;-69
2022/03/15 21:39:03;;;;;;;13.02;10.02;;;14.10;99.90;;;;;;1018147;29;20039;-69
2022/03/15 21:39:34;;;;;;;15.02;9.15;;;14.10;99.90;;;;;;1017879;29;20493;-69
2022/03/15 21:40:05;;;;;;;11.38;9.32;;;14.10;99.90;;;;;;1017634;29;20077;-68
2022/03/15 21:40:36;;;;;;;11.77;9.55;;;14.10;99.90;;;;;;1020302;29;20131;-69
2022/03/15 21:41:07;;;;;;;14.85;8.27;;;14.10;99.90;;;;;;1018410;29;20019;-69
2022/03/15 21:41:42;;;;;;;11.23;8.10;;;14.10;99.90;;;;;;1017772;29;20019;-69
2022/03/15 21:42:14;;;;;;;10.70;8.40;;;14.10;99.90;;;;;;1018018;29;20020;-69
2022/03/15 21:42:44;;;;;;;12.25;8.07;;;14.00;99.90;;;;;;1017700;29;20084;-69
2022/03/15 21:43:15;;;;;;;8.63;7.70;;;14.00;99.90;;;;;;1018532;29;20123;-69
2022/03/15 21:43:45;;;;;;;11.63;7.90;;;14.00;99.90;;;;;;1017932;29;20571;-68
2022/03/15 21:44:16;;;;;;;8.80;7.20;;;14.00;99.90;;;;;;1018031;29;20111;-69
2022/03/15 21:44:49;;;;;;;12.50;8.17;;;14.00;99.90;;;;;;1018105;29;20020;-68
2022/03/15 21:45:23;;;;;;;11.05;8.48;;;14.00;99.90;;;;;;1018014;29;20032;-69
2022/03/15 21:45:54;;;;;;;10.23;7.68;;;14.00;99.90;;;;;;1020575;29;20059;-69
2022/03/15 21:46:25;;;;;;;10.03;7.70;;;14.00;99.90;;;;;;1018096;28;20028;-69
2022/03/15 21:46:56;;;;;;;9.57;7.60;;;14.00;99.90;;;;;;1021617;29;20031;-69
2022/03/15 21:47:30;;;;;;;10.37;7.90;;;14.00;99.90;;;;;;1021543;29;20028;-69
2022/03/15 21:48:07;;;;;;;11.90;8.85;;;13.90;99.90;;;;;;1021398;29;20540;-69
2022/03/15 21:48:39;;;;;;;10.25;7.10;;;14.00;99.90;;;;;;1021935;29;20024;-69
2022/03/15 21:49:12;;;;;;;9.38;7.78;;;14.00;99.90;;;;;;1021983;29;20027;-70
2022/03/15 21:49:43;;;;;;;12.05;7.97;;;14.00;99.90;;;;;;1017866;28;20570;-70
2022/03/15 21:50:14;;;;;;;9.60;7.57;;;13.90;99.90;;;;;;1017621;29;20088;-68
2022/03/15 21:50:46;;;;;;;9.05;7.47;;;13.90;99.90;;;;;;1013364;29;20056;-69
2022/03/15 21:51:16;;;;;;;11.27;7.40;;;13.90;99.90;;;;;;1014208;29;20035;-68
2022/03/15 21:51:47;;;;;;;8.30;7.13;;;13.90;99.90;;;;;;1017707;29;20062;-68
2022/03/15 21:52:19;;;;;;;9.75;8.00;;;13.90;99.90;;;;;;1018923;29;20056;-69
2022/03/15 21:52:49;;;;;;;9.60;7.57;;;13.90;99.90;;;;;;1021139;29;20033;-70
2022/03/15 21:53:21;;;;;;;8.20;6.97;;;13.80;99.90;;;;;;1021265;28;20030;-69
2022/03/15 21:53:53;;;;;;;8.95;7.68;;;13.90;99.90;;;;;;1018224;29;20020;-68
2022/03/15 21:54:24;;;;;;;10.82;7.38;;;13.80;99.90;;;;;;1017766;29;20028;-68
2022/03/15 21:54:55;;;;;;;8.82;6.85;;;13.80;99.90;;;;;;1018182;29;20450;-68
2022/03/15 21:55:26;;;;;;;9.48;7.55;;;13.80;99.90;;;;;;1018976;29;20586;-69
2022/03/15 21:55:57;;;;;;;11.60;6.70;;;13.80;99.90;;;;;;1021457;29;20762;-69
2022/03/15 21:56:27;;;;;;;10.20;7.47;;;13.80;99.90;;;;;;1018120;29;20031;-69
2022/03/15 21:56:58;;;;;;;8.17;6.83;;;13.80;99.90;;;;;;1017737;29;20542;-68
2022/03/15 21:57:28;;;;;;;8.13;7.07;;;13.80;99.90;;;;;;1017220;29;20036;-68
2022/03/15 21:58:05;;;;;;;8.43;7.07;;;13.80;99.90;;;;;;1017762;28;20206;-69
2022/03/15 21:58:38;;;;;;;8.75;7.50;;;13.80;99.90;;;;;;1017983;29;20024;-69
2022/03/15 21:59:09;;;;;;;8.10;6.45;;;13.70;99.90;;;;;;1018855;29;20078;-68
2022/03/15 21:59:39;;;;;;;10.10;6.87;;;13.70;99.90;;;;;;1018435;29;20146;-68
2022/03/15 22:00:12;;;;;;;7.57;6.67;;;13.70;99.90;;;;;;1020515;29;20029;-68
2022/03/15 22:00:44;;;;;;;8.98;7.38;;;13.80;99.90;;;;;;1017466;29;20036;-70
2022/03/15 22:01:15;;;;;;;9.43;7.35;;;13.70;99.90;;;;;;1018131;29;20020;-69
2022/03/15 22:01:46;;;;;;;9.53;7.40;;;13.70;99.90;;;;;;1018276;29;20170;-68
2022/03/15 22:02:16;;;;;;;9.47;7.43;;;13.70;99.90;;;;;;1017270;29;20275;-69
2022/03/15 22:02:47;;;;;;;9.17;7.13;;;13.70;99.90;;;;;;1017384;29;20032;-69
2022/03/15 22:03:18;;;;;;;8.82;6.63;;;13.70;99.90;;;;;;1017602;29;20100;-68
2022/03/15 22:03:49;;;;;;;8.57;6.63;;;13.70;99.90;;;;;;1018040;29;20048;-67
2022/03/15 22:04:20;;;;;;;7.53;6.27;;;13.70;99.90;;;;;;1017855;29;20436;-67
2022/03/15 22:04:50;;;;;;;7.95;6.40;;;13.70;99.90;;;;;;1020986;29;20475;-69
2022/03/15 22:05:22;;;;;;;8.77;6.57;;;13.70;99.90;;;;;;1021928;29;20032;-67
2022/03/15 22:05:53;;;;;;;9.35;6.55;;;13.70;99.90;;;;;;1021548;28;20087;-68
2022/03/15 22:06:24;;;;;;;12.93;6.72;;;13.70;99.90;;;;;;1021801;28;20031;-68
2022/03/15 22:06:54;;;;;;;8.57;6.77;;;13.70;99.90;;;;;;1018991;29;20028;-68
2022/03/15 22:07:25;;;;;;;8.23;7.17;;;13.70;99.90;;;;;;1018588;29;20495;-69
2022/03/15 22:07:56;;;;;;;9.03;6.57;;;13.60;99.90;;;;;;1018616;29;20027;-68
2022/03/15 22:08:27;;;;;;;9.90;6.67;;;13.60;99.90;;;;;;1018673;29;20544;-68
2022/03/15 22:08:57;;;;;;;9.73;7.07;;;13.60;99.90;;;;;;1014825;29;20318;-68
2022/03/15 22:09:28;;;;;;;8.60;6.93;;;13.60;99.90;;;;;;1018656;29;20090;-68
2022/03/15 22:09:59;;;;;;;10.27;6.83;;;13.60;99.90;;;;;;1018560;29;20565;-68
2022/03/15 22:10:29;;;;;;;7.70;6.30;;;13.60;99.90;;;;;;1014539;29;20038;-69
2022/03/15 22:11:00;;;;;;;11.43;7.17;;;13.60;99.90;;;;;;1014633;29;20126;-68
2022/03/15 22:11:35;;;;;;;10.13;6.67;;;13.60;99.90;;;;;;1014715;29;20036;-69
2022/03/15 22:12:06;;;;;;;11.68;6.88;;;13.60;99.90;;;;;;1015454;29;20027;-69
2022/03/15 22:12:37;;;;;;;8.18;6.57;;;13.60;99.90;;;;;;1018733;29;20024;-69
2022/03/15 22:13:08;;;;;;;8.20;6.60;;;13.60;99.90;;;;;;1019308;29;20149;-69
2022/03/15 22:13:41;;;;;;;12.43;7.17;;;13.60;99.90;;;;;;1019286;29;20702;-69
2022/03/15 22:14:13;;;;;;;8.07;6.70;;;13.60;99.90;;;;;;1019295;29;20587;-69
2022/03/15 22:14:43;;;;;;;7.55;6.85;;;13.60;99.90;;;;;;1018383;29;20028;-68
2022/03/15 22:15:14;;;;;;;8.47;7.17;;;13.50;99.90;;;;;;1014858;29;20024;-69
2022/03/15 22:15:45;;;;;;;7.07;6.38;;;13.50;99.90;;;;;;1014576;29;20032;-68
2022/03/15 22:16:15;;;;;;;7.90;6.60;;;13.50;99.90;;;;;;1015146;29;20057;-68
2022/03/15 22:16:46;;;;;;;8.63;6.33;;;13.50;99.90;;;;;;1015331;29;20036;-69
2022/03/15 22:17:16;;;;;;;8.33;6.67;;;13.50;99.90;;;;;;1015308;29;20497;-68
2022/03/15 22:17:50;;;;;;;7.37;6.37;;;13.50;99.90;;;;;;1015146;29;20024;-68
2022/03/15 22:18:22;;;;;;;7.07;5.95;;;13.50;99.90;;;;;;1015224;29;20032;-68
2022/03/15 22:18:52;;;;;;;8.23;6.30;;;13.50;99.90;;;;;;1015493;29;20026;-68
2022/03/15 22:19:23;;;;;;;8.97;6.33;;;13.50;99.90;;;;;;1015249;29;20013;-68
2022/03/15 22:19:54;;;;;;;8.57;6.23;;;13.50;99.90;;;;;;1019381;29;20027;-69
2022/03/15 22:20:26;;;;;;;7.65;6.05;;;13.50;99.90;;;;;;1018930;29;20502;-72
2022/03/15 22:20:59;;;;;;;9.05;6.55;;;13.40;99.90;;;;;;1018822;29;20019;-69
2022/03/15 22:21:29;;;;;;;7.80;6.25;;;13.40;99.90;;;;;;1019448;29;20121;-69
2022/03/15 22:22:00;;;;;;;7.43;6.53;;;13.40;99.90;;;;;;1019458;29;20036;-68
2022/03/15 22:22:31;;;;;;;8.88;6.70;;;13.40;99.90;;;;;;1018892;29;20091;-69
2022/03/15 22:23:02;;;;;;;6.40;5.70;;;13.40;99.90;;;;;;1019284;29;20020;-69
2022/03/15 22:23:38;;;;;;;9.75;6.40;;;13.40;99.90;;;;;;1019337;29;20124;-68
2022/03/15 22:24:09;;;;;;;7.70;6.25;;;13.40;99.90;;;;;;1019118;29;20021;-68
2022/03/15 22:24:41;;;;;;;7.75;5.70;;;13.40;99.90;;;;;;1019136;29;20015;-68
2022/03/15 22:25:12;;;;;;;7.50;6.10;;;13.40;99.90;;;;;;1019156;29;20020;-69
2022/03/15 22:25:43;;;;;;;7.13;5.73;;;13.30;99.90;;;;;;1018960;29;20042;-69
2022/03/15 22:26:18;;;;;;;7.93;6.10;;;13.30;99.90;;;;;;1019518;29;20023;-68
2022/03/15 22:26:49;;;;;;;6.38;5.47;;;13.30;99.90;;;;;;1019112;29;20422;-69
2022/03/15 22:27:20;;;;;;;8.60;5.80;;;13.30;99.90;;;;;;1019805;29;20091;-70
2022/03/15 22:27:51;;;;;;;8.15;5.72;;;13.30;99.90;;;;;;1019327;29;20511;-70
2022/03/15 22:28:21;;;;;;;8.27;6.37;;;13.30;99.90;;;;;;1019498;29;20031;-68
2022/03/15 22:28:52;;;;;;;7.10;6.40;;;13.30;99.90;;;;;;1019121;29;20027;-68
2022/03/15 22:29:23;;;;;;;8.93;6.40;;;13.30;99.90;;;;;;1019413;29;20106;-69
2022/03/15 22:29:53;;;;;;;8.17;6.03;;;13.30;99.90;;;;;;1019513;29;20034;-69
2022/03/15 23:16:36;;;;;;;9.00;6.67;;;12.40;99.90;;;;;;1015298;29;20038;-68
2022/03/15 23:17:14;;;;;;;9.17;6.40;;;12.40;99.90;;;;;;1015316;29;20159;-70
2022/03/15 23:17:44;;;;;;;6.55;5.72;;;12.40;99.90;;;;;;1015143;29;20410;-69
2022/03/15 23:18:15;;;;;;;7.20;6.17;;;12.40;99.90;;;;;;1015117;29;20416;-67
2022/03/15 23:18:45;;;;;;;9.03;7.07;;;12.40;99.90;;;;;;1014736;29;20471;-70
2022/03/15 23:19:16;;;;;;;6.80;6.10;;;12.40;99.90;;;;;;1014900;29;20075;-70
2022/03/15 23:23:03;;;;;;;7.80;6.72;;;12.30;99.90;;;;;;1015206;29;20047;-69
2022/03/15 23:23:33;;;;;;;8.13;6.37;;;12.30;99.90;;;;;;1015152;29;20020;-70
2022/03/15 23:24:04;;;;;;;8.47;7.13;;;12.30;99.90;;;;;;1015551;29;20030;-68
2022/03/15 23:24:35;;;;;;;8.77;6.35;;;12.30;99.90;;;;;;1015073;29;20428;-69
2022/03/15 23:25:16;;;;;;;8.30;6.87;;;12.30;99.90;;;;;;1016271;29;20496;-69
2022/03/15 23:25:48;;;;;;;10.05;6.25;;;12.30;99.90;;;;;;1018931;29;20059;-70
2022/03/15 23:26:19;;;;;;;8.00;5.95;;;12.30;99.90;;;;;;1019115;29;20024;-69
2022/03/15 23:27:44;;;;;;;7.80;5.90;;;12.30;99.90;;;;;;1018752;29;20613;-69
2022/03/15 23:28:14;;;;;;;9.30;6.53;;;12.30;99.90;;;;;;1019025;29;20463;-68
2022/03/15 23:28:45;;;;;;;10.23;7.37;;;12.30;99.90;;;;;;1018641;29;20691;-69
2022/03/15 23:29:15;;;;;;;6.97;5.87;;;12.20;99.90;;;;;;1019157;29;20046;-68
2022/03/15 23:29:47;;;;;;;7.07;5.77;;;12.20;99.90;;;;;;1019041;29;20036;-69
2022/03/15 23:30:20;;;;;;;8.43;6.53;;;12.30;99.90;;;;;;1019244;29;20032;-69
2022/03/15 23:30:51;;;;;;;8.02;6.57;;;12.20;99.90;;;;;;1016691;29;20023;-69
2022/03/15 23:31:22;;;;;;;7.53;6.30;;;12.20;99.90;;;;;;1015098;29;20048;-69
2022/03/15 23:31:53;;;;;;;7.07;6.37;;;12.20;99.90;;;;;;1015436;29;20031;-70
2022/03/15 23:32:23;;;;;;;8.10;6.90;;;12.20;99.90;;;;;;1014805;29;20032;-68
2022/03/15 23:32:55;;;;;;;6.50;5.87;;;12.20;99.90;;;;;;1015188;29;20471;-68
2022/03/15 23:33:25;;;;;;;7.30;6.18;;;12.20;99.90;;;;;;1014906;29;20039;-68
2022/03/15 23:33:56;;;;;;;10.47;6.60;;;12.20;99.90;;;;;;1014972;29;20032;-69
2022/03/15 23:34:26;;;;;;;7.07;6.17;;;12.20;99.90;;;;;;1015294;29;20538;-70
2022/03/15 23:34:57;;;;;;;7.93;6.83;;;12.20;99.90;;;;;;1018915;29;20028;-67
2022/03/15 23:35:27;;;;;;;11.47;7.13;;;12.10;99.90;;;;;;1018987;29;20034;-68
2022/03/15 23:36:00;;;;;;;9.93;7.07;;;12.10;99.90;;;;;;1019122;29;20029;-68
2022/03/15 23:36:31;;;;;;;8.68;6.43;;;12.10;99.90;;;;;;1019058;29;20016;-71
2022/03/15 23:37:03;;;;;;;9.33;6.63;;;12.10;99.90;;;;;;1019215;29;20677;-69
2022/03/15 23:37:34;;;;;;;10.30;6.82;;;12.10;99.90;;;;;;1018996;29;20023;-68
2022/03/15 23:38:05;;;;;;;8.93;6.68;;;12.10;99.90;;;;;;1019192;29;20484;-69
2022/03/15 23:38:35;;;;;;;7.73;5.87;;;12.10;99.90;;;;;;1018974;29;20475;-70
2022/03/15 23:39:06;;;;;;;7.77;6.43;;;12.10;99.90;;;;;;1018226;29;20126;-70
2022/03/15 23:39:36;;;;;;;7.80;6.40;;;12.10;99.90;;;;;;1018919;29;20076;-69
2022/03/15 23:40:09;;;;;;;6.97;5.90;;;12.10;99.90;;;;;;1018974;29;20012;-69
2022/03/15 23:40:40;;;;;;;9.02;7.05;;;12.10;99.90;;;;;;1018614;29;20020;-69
2022/03/15 23:41:10;;;;;;;7.37;6.33;;;12.10;99.90;;;;;;1018959;29;20087;-69
2022/03/15 23:41:41;;;;;;;8.13;6.73;;;12.00;99.90;;;;;;1019018;29;20114;-69
2022/03/15 23:42:11;;;;;;;7.93;6.73;;;12.00;99.90;;;;;;1019518;29;20026;-69
2022/03/15 23:42:42;;;;;;;7.73;6.53;;;12.00;99.90;;;;;;1018710;29;20081;-70
2022/03/15 23:43:13;;;;;;;6.80;6.10;;;12.00;99.90;;;;;;1019035;29;20390;-70
2022/03/15 23:43:43;;;;;;;7.40;6.70;;;12.00;99.90;;;;;;1018870;29;20770;-71
2022/03/15 23:44:14;;;;;;;8.00;7.20;;;12.00;99.90;;;;;;1019047;29;20063;-69
2022/03/15 23:44:46;;;;;;;7.40;6.63;;;12.00;99.90;;;;;;1018635;29;20940;-69
2022/03/15 23:45:17;;;;;;;6.60;6.00;;;12.00;99.90;;;;;;1017749;29;20031;-68
2022/03/15 23:45:48;;;;;;;7.50;6.77;;;12.00;99.90;;;;;;1015969;29;20035;-69
2022/03/15 23:46:18;;;;;;;8.27;6.47;;;12.00;99.90;;;;;;1015901;29;20040;-69
2022/03/15 23:46:49;;;;;;;10.13;6.43;;;12.00;99.90;;;;;;1014983;29;20024;-69
2022/03/15 23:47:19;;;;;;;8.47;7.07;;;12.00;99.90;;;;;;1015132;29;20060;-68
2022/03/15 23:47:51;;;;;;;9.33;6.80;;;12.00;99.90;;;;;;1015243;29;20031;-69
2022/03/15 23:48:21;;;;;;;7.78;6.90;;;12.00;99.90;;;;;;1015105;29;20032;-68
2022/03/15 23:48:52;;;;;;;8.87;6.77;;;12.00;99.90;;;;;;1014935;29;20052;-69
2022/03/15 23:49:22;;;;;;;6.63;5.97;;;11.90;99.90;;;;;;1014974;29;20051;-69
2022/03/15 23:49:53;;;;;;;7.33;6.23;;;11.90;99.90;;;;;;1015320;29;20119;-69
2022/03/15 23:50:26;;;;;;;7.77;6.77;;;11.90;99.90;;;;;;1014944;29;20036;-69
2022/03/15 23:50:57;;;;;;;8.30;6.45;;;11.90;99.90;;;;;;1015032;29;20024;-68
2022/03/15 23:51:27;;;;;;;8.73;7.17;;;11.90;99.90;;;;;;1015166;29;20039;-68
2022/03/15 23:52:00;;;;;;;8.60;7.53;;;11.90;99.90;;;;;;1014937;29;20103;-68
2022/03/15 23:52:31;;;;;;;9.70;6.70;;;11.90;99.90;;;;;;1015417;29;20031;-68
2022/03/15 23:53:01;;;;;;;8.00;7.20;;;11.90;99.90;;;;;;1014844;29;20024;-70
2022/03/15 23:53:32;;;;;;;8.87;7.10;;;11.90;99.90;;;;;;1018323;29;20549;-70
2022/03/15 23:54:03;;;;;;;7.63;6.17;;;11.90;99.90;;;;;;1018638;29;20098;-70
2022/03/15 23:54:34;;;;;;;8.23;7.28;;;11.90;99.90;;;;;;1018679;29;20126;-67
2022/03/15 23:55:06;;;;;;;8.30;7.20;;;11.90;99.90;;;;;;1018650;29;20083;-68
2022/03/15 23:55:36;;;;;;;7.78;6.80;;;11.90;99.90;;;;;;1018912;29;20040;-69
2022/03/15 23:56:07;;;;;;;7.60;6.90;;;11.80;99.90;;;;;;1018883;29;20027;-68
2022/03/15 23:56:37;;;;;;;9.13;6.30;;;11.80;99.90;;;;;;1018168;29;20036;-68
2022/03/15 23:57:08;;;;;;;9.20;6.67;;;11.80;99.90;;;;;;1018260;29;20032;-68
2022/03/15 23:57:39;;;;;;;8.60;7.13;;;11.80;99.90;;;;;;1018817;29;20181;-67
2022/03/15 23:58:09;;;;;;;7.90;7.07;;;11.80;99.90;;;;;;1018706;29;20043;-68
2022/03/15 23:58:40;;;;;;;6.23;5.63;;;11.80;99.90;;;;;;1018280;29;20028;-69
2022/03/15 23:59:10;;;;;;;8.10;6.57;;;11.80;99.90;;;;;;1018485;29;20833;-69
2022/03/15 23:59:41;;;;;;;8.97;6.50;;;11.80;99.90;;;;;;1018475;29;20063;-69
